Aérodrome :
LOGIN :

S'inscrire | Disclaimer

   EN    FR    IT 

 










Légende :    VFR   VFR Marginal   IFR   IFR Intensif   IFR Très Intensif
Visi : 
Plafond : 
>= 8 km
>= 3000ft
5 à 8 km
1000 à 3000 ft
1500m à 5 km
500 à 1000 ft
800 à 1500m
200 à 500 ft
< 800m
< 200 ft
Symboles :   Orages  Brouillard  Fortes neiges  Fortes précipitations  Vent > 20 kt
SIGMETs :   Divers  Orages  Givrage  Turbulence  Onde Orograph.  Cendres Volcan.







- Altitude de l'aérodrome : 375 ft
- Code IATA : MST


EHBK - Maastricht Aachen

DERNIER METAR :
  • 270325Z AUTO 24007KT 210V280 3100 +DZRA SCT002 BKN003 BKN004 FEW015CB 13/13 Q1009

METARs EXPIRÉS :
  • 270255Z AUTO 24008KT 210V280 3900 DZ SCT002 BKN003 BKN004 FEW015CB 14/13 Q1009
  • 270225Z AUTO 24008KT 200V290 3400 +DZ FEW002 BKN003 BKN005 14/13 Q1010
  • 270155Z AUTO 24008KT 200V280 3800 +DZ SCT002 BKN003 OVC005 14/13 Q1010
  • 270125Z AUTO 24008KT 200V290 4300 +DZ SCT002 BKN004 OVC005 14/13 Q1010
  • 270055Z AUTO 23011KT 2800 +DZ SCT003 BKN004 BKN005 14/13 Q1010

TAF TAF EHBK
Valide du 27 à 00h jusqu'au 28 à 06h UTC


262321Z 2700/2806 24012KT 9999 BKN015
BECMG 2700/2702 7000 -RADZ BKN008
PROB40
TEMPO 2701/2706 2500 DZRA BKN003
BECMG 2705/2708 27006KT 9999 NSW SCT025
PROB30
TEMPO 2804/2806 7000 -SHRA BKN012 SCT025CB
Pas de NOTAMs connus pour ce terrain.



MET'MAP, la Météo Aéronautique d'un coup d'oeil ! - Copyright ORBIFLY Décembre 2007 - Disclaimer

ORBIFLY MET'MAP TEAM :

Programmation & Développement : Alexandra Zaïnal
Conception & Développement : Baudouin d'Aumeries
Co-Programmation & Développement : Marc-Olivier Méhu
Soutien technique & logistique : Manuel Goepfert

Contact : metmap@orbifly.com




SOURCES & CREDITS :

   NOAA